sensor_id;sensor_type;location;lat;lon;timestamp;P1;durP1;ratioP1;P2;durP2;ratioP2
63965;SDS011;50151;52.030;5.350;2023-10-09T05:27:29;19.30;;;9.15;;
63965;SDS011;50151;52.030;5.350;2023-10-09T05:30:11;16.50;;;8.23;;
63965;SDS011;50151;52.030;5.350;2023-10-09T05:32:56;23.42;;;8.02;;
63965;SDS011;50151;52.030;5.350;2023-10-09T05:35:46;18.85;;;9.38;;
63965;SDS011;50151;52.030;5.350;2023-10-09T05:38:32;14.60;;;8.00;;
63965;SDS011;50151;52.030;5.350;2023-10-09T05:41:02;16.45;;;8.85;;
63965;SDS011;50151;52.030;5.350;2023-10-09T05:43:49;21.25;;;8.45;;
63965;SDS011;50151;52.030;5.350;2023-10-09T05:46:34;15.77;;;7.80;;
63965;SDS011;50151;52.030;5.350;2023-10-09T05:49:14;15.82;;;8.40;;
63965;SDS011;50151;52.030;5.350;2023-10-09T05:51:50;17.17;;;8.07;;
63965;SDS011;50151;52.030;5.350;2023-10-09T05:54:40;20.65;;;8.52;;
63965;SDS011;50151;52.030;5.350;2023-10-09T05:57:25;25.92;;;12.80;;
63965;SDS011;50151;52.030;5.350;2023-10-09T06:00:30;20.80;;;8.63;;
63965;SDS011;50151;52.030;5.350;2023-10-09T06:03:16;19.88;;;8.40;;
63965;SDS011;50151;52.030;5.350;2023-10-09T06:05:52;17.05;;;8.15;;
63965;SDS011;50151;52.030;5.350;2023-10-09T06:08:23;21.30;;;8.52;;
63965;SDS011;50151;52.030;5.350;2023-10-09T06:11:11;16.10;;;8.15;;
63965;SDS011;50151;52.030;5.350;2023-10-09T06:14:01;15.55;;;7.82;;
63965;SDS011;50151;52.030;5.350;2023-10-09T06:16:39;19.90;;;7.90;;
63965;SDS011;50151;52.030;5.350;2023-10-09T06:19:08;16.35;;;8.10;;
63965;SDS011;50151;52.030;5.350;2023-10-09T06:21:46;14.32;;;8.27;;
63965;SDS011;50151;52.030;5.350;2023-10-09T06:24:22;16.27;;;8.27;;
63965;SDS011;50151;52.030;5.350;2023-10-09T06:26:49;30.13;;;9.05;;
63965;SDS011;50151;52.030;5.350;2023-10-09T06:29:29;20.05;;;8.40;;
63965;SDS011;50151;52.030;5.350;2023-10-09T06:32:08;20.92;;;8.07;;
63965;SDS011;50151;52.030;5.350;2023-10-09T06:35:01;17.20;;;8.10;;
63965;SDS011;50151;52.030;5.350;2023-10-09T06:37:48;19.50;;;8.20;;
63965;SDS011;50151;52.030;5.350;2023-10-09T06:40:34;19.67;;;8.50;;
63965;SDS011;50151;52.030;5.350;2023-10-09T06:43:21;18.95;;;7.68;;
63965;SDS011;50151;52.030;5.350;2023-10-09T06:45:49;17.42;;;8.82;;
63965;SDS011;50151;52.030;5.350;2023-10-09T06:48:24;29.58;;;8.48;;
63965;SDS011;50151;52.030;5.350;2023-10-09T06:53:33;23.65;;;7.90;;
63965;SDS011;50151;52.030;5.350;2023-10-09T06:56:19;15.07;;;7.88;;
63965;SDS011;50151;52.030;5.350;2023-10-09T06:59:12;16.30;;;7.50;;
63965;SDS011;50151;52.030;5.350;2023-10-09T07:02:01;21.42;;;8.38;;
63965;SDS011;50151;52.030;5.350;2023-10-09T07:04:47;16.02;;;7.28;;
63965;SDS011;50151;52.030;5.350;2023-10-09T07:07:14;16.13;;;8.05;;
63965;SDS011;50151;52.030;5.350;2023-10-09T07:09:42;17.08;;;8.05;;
63965;SDS011;50151;52.030;5.350;2023-10-09T07:12:10;14.13;;;7.32;;
63965;SDS011;50151;52.030;5.350;2023-10-09T07:14:40;28.00;;;8.93;;
63965;SDS011;50151;52.030;5.350;2023-10-09T07:17:07;17.23;;;7.55;;
63965;SDS011;50151;52.030;5.350;2023-10-09T07:20:13;22.00;;;7.68;;
63965;SDS011;50151;52.030;5.350;2023-10-09T07:22:41;16.63;;;7.93;;
63965;SDS011;50151;52.030;5.350;2023-10-09T07:25:22;19.15;;;7.57;;
63965;SDS011;50151;52.030;5.350;2023-10-09T07:28:08;20.98;;;7.57;;
63965;SDS011;50151;52.030;5.350;2023-10-09T07:30:45;15.38;;;7.53;;
63965;SDS011;50151;52.030;5.350;2023-10-09T07:33:22;16.80;;;8.05;;
63965;SDS011;50151;52.030;5.350;2023-10-09T07:35:58;20.10;;;7.88;;
63965;SDS011;50151;52.030;5.350;2023-10-09T07:38:32;17.02;;;7.40;;
63965;SDS011;50151;52.030;5.350;2023-10-09T07:41:02;21.85;;;7.93;;
63965;SDS011;50151;52.030;5.350;2023-10-09T07:43:36;29.27;;;7.80;;
63965;SDS011;50151;52.030;5.350;2023-10-09T07:46:15;18.05;;;7.88;;
63965;SDS011;50151;52.030;5.350;2023-10-09T07:49:21;23.33;;;7.95;;
63965;SDS011;50151;52.030;5.350;2023-10-09T07:51:51;14.15;;;7.53;;
63965;SDS011;50151;52.030;5.350;2023-10-09T07:54:24;16.98;;;8.00;;
63965;SDS011;50151;52.030;5.350;2023-10-09T07:57:00;13.57;;;6.38;;
63965;SDS011;50151;52.030;5.350;2023-10-09T08:02:07;15.52;;;7.32;;
63965;SDS011;50151;52.030;5.350;2023-10-09T08:04:39;16.67;;;7.82;;
63965;SDS011;50151;52.030;5.350;2023-10-09T08:07:16;16.88;;;7.72;;
63965;SDS011;50151;52.030;5.350;2023-10-09T08:10:07;15.20;;;6.75;;
63965;SDS011;50151;52.030;5.350;2023-10-09T08:12:41;16.33;;;7.10;;
63965;SDS011;50151;52.030;5.350;2023-10-09T08:15:11;15.05;;;7.07;;
63965;SDS011;50151;52.030;5.350;2023-10-09T08:17:48;20.17;;;7.63;;
63965;SDS011;50151;52.030;5.350;2023-10-09T08:20:30;13.98;;;7.55;;
63965;SDS011;50151;52.030;5.350;2023-10-09T08:23:16;19.67;;;7.50;;
63965;SDS011;50151;52.030;5.350;2023-10-09T08:25:59;16.05;;;7.13;;
63965;SDS011;50151;52.030;5.350;2023-10-09T08:28:41;19.20;;;7.07;;
63965;SDS011;50151;52.030;5.350;2023-10-09T08:31:12;15.63;;;7.43;;
63965;SDS011;50151;52.030;5.350;2023-10-09T08:34:00;21.42;;;7.72;;
63965;SDS011;50151;52.030;5.350;2023-10-09T08:36:31;16.83;;;7.32;;
63965;SDS011;50151;52.030;5.350;2023-10-09T08:39:03;18.10;;;7.28;;
63965;SDS011;50151;52.030;5.350;2023-10-09T08:41:52;18.77;;;7.93;;
63965;SDS011;50151;52.030;5.350;2023-10-09T08:44:19;19.30;;;7.20;;
63965;SDS011;50151;52.030;5.350;2023-10-09T08:46:49;18.52;;;8.10;;
63965;SDS011;50151;52.030;5.350;2023-10-09T08:49:17;12.98;;;6.25;;
63965;SDS011;50151;52.030;5.350;2023-10-09T08:51:44;16.73;;;7.30;;
63965;SDS011;50151;52.030;5.350;2023-10-09T08:54:12;13.52;;;6.68;;
63965;SDS011;50151;52.030;5.350;2023-10-09T08:56:41;12.20;;;6.80;;
63965;SDS011;50151;52.030;5.350;2023-10-09T08:59:20;13.80;;;6.05;;
63965;SDS011;50151;52.030;5.350;2023-10-09T09:01:47;61.63;;;9.60;;
63965;SDS011;50151;52.030;5.350;2023-10-09T09:07:06;17.40;;;7.10;;
63965;SDS011;50151;52.030;5.350;2023-10-09T09:09:55;17.70;;;6.20;;
63965;SDS011;50151;52.030;5.350;2023-10-09T09:12:42;17.35;;;6.20;;
63965;SDS011;50151;52.030;5.350;2023-10-09T09:15:13;18.42;;;6.97;;
63965;SDS011;50151;52.030;5.350;2023-10-09T09:17:45;19.00;;;6.57;;
63965;SDS011;50151;52.030;5.350;2023-10-09T09:20:22;32.00;;;7.28;;
63965;SDS011;50151;52.030;5.350;2023-10-09T09:22:55;21.10;;;6.78;;
63965;SDS011;50151;52.030;5.350;2023-10-09T09:25:40;25.13;;;7.05;;
63965;SDS011;50151;52.030;5.350;2023-10-09T09:28:25;18.77;;;6.82;;
63965;SDS011;50151;52.030;5.350;2023-10-09T09:31:08;17.55;;;6.40;;
63965;SDS011;50151;52.030;5.350;2023-10-09T09:33:40;15.52;;;6.10;;
63965;SDS011;50151;52.030;5.350;2023-10-09T09:36:07;18.40;;;6.18;;
63965;SDS011;50151;52.030;5.350;2023-10-09T09:38:34;16.60;;;6.53;;
63965;SDS011;50151;52.030;5.350;2023-10-09T09:41:13;13.93;;;5.93;;
63965;SDS011;50151;52.030;5.350;2023-10-09T09:43:51;12.50;;;6.30;;
63965;SDS011;50151;52.030;5.350;2023-10-09T09:46:34;21.77;;;6.55;;
63965;SDS011;50151;52.030;5.350;2023-10-09T09:49:02;14.43;;;6.60;;
63965;SDS011;50151;52.030;5.350;2023-10-09T09:51:32;15.13;;;5.90;;
63965;SDS011;50151;52.030;5.350;2023-10-09T09:53:59;19.13;;;6.00;;
63965;SDS011;50151;52.030;5.350;2023-10-09T09:56:28;15.57;;;6.03;;
63965;SDS011;50151;52.030;5.350;2023-10-09T09:58:57;12.75;;;5.43;;
63965;SDS011;50151;52.030;5.350;2023-10-09T10:01:30;14.63;;;5.90;;
63965;SDS011;50151;52.030;5.350;2023-10-09T10:04:07;13.30;;;5.47;;
63965;SDS011;50151;52.030;5.350;2023-10-09T10:06:40;15.35;;;5.90;;
63965;SDS011;50151;52.030;5.350;2023-10-09T10:09:33;15.68;;;5.90;;
63965;SDS011;50151;52.030;5.350;2023-10-09T10:12:05;12.77;;;5.25;;
63965;SDS011;50151;52.030;5.350;2023-10-09T10:14:56;10.40;;;4.47;;
63965;SDS011;50151;52.030;5.350;2023-10-09T10:17:25;12.10;;;5.13;;
63965;SDS011;50151;52.030;5.350;2023-10-09T10:22:27;13.90;;;5.35;;
63965;SDS011;50151;52.030;5.350;2023-10-09T10:24:55;12.65;;;5.15;;
63965;SDS011;50151;52.030;5.350;2023-10-09T10:30:27;13.93;;;3.95;;
63965;SDS011;50151;52.030;5.350;2023-10-09T10:33:00;15.25;;;4.90;;
63965;SDS011;50151;52.030;5.350;2023-10-09T10:35:42;16.85;;;5.28;;
63965;SDS011;50151;52.030;5.350;2023-10-09T10:38:21;12.02;;;5.10;;
63965;SDS011;50151;52.030;5.350;2023-10-09T10:41:09;16.70;;;5.25;;
63965;SDS011;50151;52.030;5.350;2023-10-09T10:43:40;13.55;;;4.90;;
63965;SDS011;50151;52.030;5.350;2023-10-09T10:46:19;12.68;;;4.68;;
63965;SDS011;50151;52.030;5.350;2023-10-09T10:48:50;11.88;;;4.43;;
63965;SDS011;50151;52.030;5.350;2023-10-09T10:51:26;9.98;;;4.55;;
63965;SDS011;50151;52.030;5.350;2023-10-09T10:54:04;9.18;;;4.15;;
63965;SDS011;50151;52.030;5.350;2023-10-09T10:56:50;9.02;;;3.90;;
63965;SDS011;50151;52.030;5.350;2023-10-09T10:59:18;15.30;;;4.95;;
63965;SDS011;50151;52.030;5.350;2023-10-09T11:01:56;15.63;;;4.25;;
63965;SDS011;50151;52.030;5.350;2023-10-09T11:04:26;13.93;;;4.40;;
63965;SDS011;50151;52.030;5.350;2023-10-09T11:06:58;13.27;;;4.78;;
63965;SDS011;50151;52.030;5.350;2023-10-09T11:09:48;19.30;;;4.10;;
63965;SDS011;50151;52.030;5.350;2023-10-09T11:12:37;10.20;;;4.07;;
63965;SDS011;50151;52.030;5.350;2023-10-09T11:15:33;12.05;;;4.07;;
63965;SDS011;50151;52.030;5.350;2023-10-09T11:18:22;13.25;;;4.68;;
63965;SDS011;50151;52.030;5.350;2023-10-09T11:20:54;15.10;;;4.65;;
63965;SDS011;50151;52.030;5.350;2023-10-09T11:23:31;13.82;;;4.30;;
63965;SDS011;50151;52.030;5.350;2023-10-09T11:26:05;9.70;;;4.38;;
63965;SDS011;50151;52.030;5.350;2023-10-09T11:31:42;12.70;;;4.50;;
63965;SDS011;50151;52.030;5.350;2023-10-09T11:34:26;8.70;;;4.10;;
63965;SDS011;50151;52.030;5.350;2023-10-09T11:37:03;10.73;;;4.78;;
63965;SDS011;50151;52.030;5.350;2023-10-09T11:39:41;16.92;;;5.25;;
63965;SDS011;50151;52.030;5.350;2023-10-09T11:42:21;17.90;;;4.38;;
63965;SDS011;50151;52.030;5.350;2023-10-09T11:45:22;13.07;;;4.30;;
63965;SDS011;50151;52.030;5.350;2023-10-09T11:47:57;18.85;;;4.35;;
63965;SDS011;50151;52.030;5.350;2023-10-09T11:50:47;12.55;;;5.18;;
63965;SDS011;50151;52.030;5.350;2023-10-09T11:53:42;14.25;;;4.70;;
63965;SDS011;50151;52.030;5.350;2023-10-09T11:56:24;14.25;;;4.35;;
63965;SDS011;50151;52.030;5.350;2023-10-09T11:58:53;13.27;;;4.57;;
63965;SDS011;50151;52.030;5.350;2023-10-09T12:01:24;10.85;;;4.10;;
63965;SDS011;50151;52.030;5.350;2023-10-09T12:03:52;10.20;;;3.30;;
63965;SDS011;50151;52.030;5.350;2023-10-09T12:06:20;11.75;;;3.85;;
63965;SDS011;50151;52.030;5.350;2023-10-09T12:08:50;8.55;;;3.90;;
63965;SDS011;50151;52.030;5.350;2023-10-09T12:11:18;11.32;;;4.25;;
63965;SDS011;50151;52.030;5.350;2023-10-09T12:13:50;13.00;;;4.30;;
63965;SDS011;50151;52.030;5.350;2023-10-09T12:16:22;17.95;;;3.95;;
63965;SDS011;50151;52.030;5.350;2023-10-09T12:18:54;15.82;;;4.03;;
63965;SDS011;50151;52.030;5.350;2023-10-09T12:21:22;10.48;;;3.97;;
63965;SDS011;50151;52.030;5.350;2023-10-09T12:23:49;8.45;;;4.13;;
63965;SDS011;50151;52.030;5.350;2023-10-09T12:26:16;10.73;;;3.88;;
63965;SDS011;50151;52.030;5.350;2023-10-09T12:28:43;9.90;;;4.13;;
63965;SDS011;50151;52.030;5.350;2023-10-09T12:31:12;11.00;;;4.10;;
63965;SDS011;50151;52.030;5.350;2023-10-09T12:33:51;9.95;;;3.88;;
63965;SDS011;50151;52.030;5.350;2023-10-09T12:36:18;15.45;;;4.45;;
63965;SDS011;50151;52.030;5.350;2023-10-09T12:38:49;19.10;;;4.70;;
63965;SDS011;50151;52.030;5.350;2023-10-09T12:41:18;12.98;;;3.70;;
63965;SDS011;50151;52.030;5.350;2023-10-09T12:43:46;10.65;;;4.07;;
63965;SDS011;50151;52.030;5.350;2023-10-09T12:46:14;18.42;;;4.75;;
63965;SDS011;50151;52.030;5.350;2023-10-09T12:48:43;9.68;;;3.72;;
63965;SDS011;50151;52.030;5.350;2023-10-09T12:51:14;16.48;;;4.10;;
63965;SDS011;50151;52.030;5.350;2023-10-09T12:53:44;9.18;;;3.85;;
63965;SDS011;50151;52.030;5.350;2023-10-09T12:56:12;11.95;;;4.05;;
63965;SDS011;50151;52.030;5.350;2023-10-09T12:58:38;17.38;;;3.90;;
63965;SDS011;50151;52.030;5.350;2023-10-09T13:01:08;13.95;;;4.20;;
63965;SDS011;50151;52.030;5.350;2023-10-09T13:03:36;20.13;;;4.82;;
63965;SDS011;50151;52.030;5.350;2023-10-09T13:06:05;16.90;;;4.30;;
63965;SDS011;50151;52.030;5.350;2023-10-09T13:08:37;11.90;;;4.00;;
63965;SDS011;50151;52.030;5.350;2023-10-09T13:11:08;12.63;;;4.05;;
63965;SDS011;50151;52.030;5.350;2023-10-09T13:13:43;10.55;;;3.97;;
63965;SDS011;50151;52.030;5.350;2023-10-09T13:16:14;14.70;;;4.55;;
63965;SDS011;50151;52.030;5.350;2023-10-09T13:18:55;13.15;;;3.97;;
63965;SDS011;50151;52.030;5.350;2023-10-09T13:21:23;13.70;;;4.28;;
63965;SDS011;50151;52.030;5.350;2023-10-09T13:23:58;15.55;;;4.43;;
63965;SDS011;50151;52.030;5.350;2023-10-09T13:26:26;23.52;;;4.90;;
63965;SDS011;50151;52.030;5.350;2023-10-09T13:28:59;10.40;;;3.47;;
63965;SDS011;50151;52.030;5.350;2023-10-09T13:31:28;9.13;;;3.92;;
63965;SDS011;50151;52.030;5.350;2023-10-09T13:33:58;14.98;;;4.25;;
63965;SDS011;50151;52.030;5.350;2023-10-09T13:36:25;10.02;;;4.15;;
63965;SDS011;50151;52.030;5.350;2023-10-09T13:38:58;12.15;;;4.20;;
63965;SDS011;50151;52.030;5.350;2023-10-09T13:41:46;10.32;;;3.75;;
63965;SDS011;50151;52.030;5.350;2023-10-09T13:44:14;8.73;;;3.65;;
63965;SDS011;50151;52.030;5.350;2023-10-09T13:46:41;19.77;;;4.35;;
63965;SDS011;50151;52.030;5.350;2023-10-09T13:49:11;14.55;;;4.63;;
63965;SDS011;50151;52.030;5.350;2023-10-09T13:51:41;14.73;;;4.63;;
63965;SDS011;50151;52.030;5.350;2023-10-09T13:54:14;11.10;;;3.70;;
63965;SDS011;50151;52.030;5.350;2023-10-09T13:56:55;11.25;;;3.67;;
63965;SDS011;50151;52.030;5.350;2023-10-09T13:59:22;11.65;;;4.25;;
63965;SDS011;50151;52.030;5.350;2023-10-09T14:01:51;12.75;;;4.22;;
63965;SDS011;50151;52.030;5.350;2023-10-09T14:04:21;12.57;;;4.38;;
63965;SDS011;50151;52.030;5.350;2023-10-09T14:06:49;10.35;;;4.10;;
63965;SDS011;50151;52.030;5.350;2023-10-09T14:09:26;12.15;;;4.05;;
63965;SDS011;50151;52.030;5.350;2023-10-09T14:12:05;12.90;;;4.05;;
63965;SDS011;50151;52.030;5.350;2023-10-09T14:14:34;8.57;;;4.10;;
63965;SDS011;50151;52.030;5.350;2023-10-09T14:17:17;9.73;;;4.30;;
63965;SDS011;50151;52.030;5.350;2023-10-09T14:19:50;15.18;;;4.43;;
63965;SDS011;50151;52.030;5.350;2023-10-09T14:22:18;10.45;;;3.80;;
63965;SDS011;50151;52.030;5.350;2023-10-09T14:24:56;14.25;;;4.38;;
63965;SDS011;50151;52.030;5.350;2023-10-09T14:27:23;9.25;;;3.78;;
63965;SDS011;50151;52.030;5.350;2023-10-09T14:30:01;10.82;;;4.20;;
63965;SDS011;50151;52.030;5.350;2023-10-09T14:32:38;11.23;;;3.95;;
63965;SDS011;50151;52.030;5.350;2023-10-09T14:35:17;12.98;;;4.30;;
63965;SDS011;50151;52.030;5.350;2023-10-09T14:37:47;11.10;;;4.35;;
63965;SDS011;50151;52.030;5.350;2023-10-09T14:40:15;12.57;;;4.00;;
63965;SDS011;50151;52.030;5.350;2023-10-09T14:42:47;14.93;;;4.10;;
63965;SDS011;50151;52.030;5.350;2023-10-09T14:45:26;15.70;;;4.60;;
63965;SDS011;50151;52.030;5.350;2023-10-09T14:47:53;15.35;;;4.60;;
63965;SDS011;50151;52.030;5.350;2023-10-09T14:50:20;12.75;;;4.35;;
63965;SDS011;50151;52.030;5.350;2023-10-09T14:52:50;25.92;;;4.82;;
63965;SDS011;50151;52.030;5.350;2023-10-09T14:55:17;14.35;;;3.95;;
63965;SDS011;50151;52.030;5.350;2023-10-09T14:57:54;13.63;;;4.25;;
63965;SDS011;50151;52.030;5.350;2023-10-09T15:00:21;15.57;;;4.57;;
63965;SDS011;50151;52.030;5.350;2023-10-09T15:02:52;15.32;;;4.47;;
63965;SDS011;50151;52.030;5.350;2023-10-09T15:05:19;15.80;;;4.72;;
63965;SDS011;50151;52.030;5.350;2023-10-09T15:07:48;14.50;;;4.55;;
63965;SDS011;50151;52.030;5.350;2023-10-09T15:10:16;11.40;;;4.47;;
63965;SDS011;50151;52.030;5.350;2023-10-09T15:12:44;14.93;;;4.35;;
63965;SDS011;50151;52.030;5.350;2023-10-09T15:15:14;12.57;;;4.30;;
63965;SDS011;50151;52.030;5.350;2023-10-09T15:17:42;20.38;;;4.70;;
63965;SDS011;50151;52.030;5.350;2023-10-09T15:20:13;14.30;;;4.65;;
63965;SDS011;50151;52.030;5.350;2023-10-09T15:22:41;13.27;;;3.95;;
63965;SDS011;50151;52.030;5.350;2023-10-09T15:25:08;12.82;;;4.15;;
63965;SDS011;50151;52.030;5.350;2023-10-09T15:27:41;12.27;;;5.10;;
63965;SDS011;50151;52.030;5.350;2023-10-09T15:30:09;21.88;;;5.18;;
63965;SDS011;50151;52.030;5.350;2023-10-09T15:32:40;17.60;;;4.65;;
63965;SDS011;50151;52.030;5.350;2023-10-09T15:35:08;11.50;;;4.45;;
63965;SDS011;50151;52.030;5.350;2023-10-09T15:37:40;13.80;;;4.80;;
63965;SDS011;50151;52.030;5.350;2023-10-09T15:40:07;12.35;;;4.43;;
63965;SDS011;50151;52.030;5.350;2023-10-09T15:42:42;15.25;;;4.95;;
63965;SDS011;50151;52.030;5.350;2023-10-09T15:45:22;13.85;;;4.85;;
63965;SDS011;50151;52.030;5.350;2023-10-09T15:47:50;12.07;;;4.13;;
63965;SDS011;50151;52.030;5.350;2023-10-09T15:50:18;11.02;;;4.85;;
63965;SDS011;50151;52.030;5.350;2023-10-09T15:52:46;11.13;;;4.45;;
63965;SDS011;50151;52.030;5.350;2023-10-09T15:55:15;15.55;;;4.40;;
63965;SDS011;50151;52.030;5.350;2023-10-09T15:57:47;14.30;;;4.80;;
63965;SDS011;50151;52.030;5.350;2023-10-09T16:00:14;12.20;;;4.57;;
63965;SDS011;50151;52.030;5.350;2023-10-09T16:02:44;14.77;;;4.85;;
63965;SDS011;50151;52.030;5.350;2023-10-09T16:05:13;10.30;;;4.68;;
63965;SDS011;50151;52.030;5.350;2023-10-09T16:07:40;13.35;;;4.90;;
63965;SDS011;50151;52.030;5.350;2023-10-09T16:10:07;12.15;;;4.90;;
63965;SDS011;50151;52.030;5.350;2023-10-09T16:12:36;11.23;;;4.55;;
63965;SDS011;50151;52.030;5.350;2023-10-09T16:15:04;14.02;;;5.05;;
63965;SDS011;50151;52.030;5.350;2023-10-09T16:17:32;17.00;;;4.95;;
63965;SDS011;50151;52.030;5.350;2023-10-09T16:19:59;13.15;;;4.22;;
63965;SDS011;50151;52.030;5.350;2023-10-09T16:22:27;12.73;;;4.80;;
63965;SDS011;50151;52.030;5.350;2023-10-09T16:24:55;18.00;;;4.97;;
63965;SDS011;50151;52.030;5.350;2023-10-09T16:27:25;16.38;;;5.20;;
63965;SDS011;50151;52.030;5.350;2023-10-09T16:29:53;15.35;;;4.70;;
63965;SDS011;50151;52.030;5.350;2023-10-09T16:32:20;14.52;;;5.00;;
63965;SDS011;50151;52.030;5.350;2023-10-09T16:34:48;17.23;;;4.82;;
63965;SDS011;50151;52.030;5.350;2023-10-09T16:37:16;14.32;;;5.00;;
63965;SDS011;50151;52.030;5.350;2023-10-09T16:39:48;14.02;;;5.10;;
63965;SDS011;50151;52.030;5.350;2023-10-09T16:42:20;13.50;;;4.97;;
63965;SDS011;50151;52.030;5.350;2023-10-09T16:44:50;12.98;;;4.72;;
63965;SDS011;50151;52.030;5.350;2023-10-09T16:47:17;12.55;;;4.70;;
63965;SDS011;50151;52.030;5.350;2023-10-09T16:49:44;10.32;;;4.50;;
63965;SDS011;50151;52.030;5.350;2023-10-09T16:52:17;11.63;;;4.88;;
63965;SDS011;50151;52.030;5.350;2023-10-09T16:54:44;11.90;;;4.25;;
63965;SDS011;50151;52.030;5.350;2023-10-09T16:57:11;12.38;;;4.60;;
63965;SDS011;50151;52.030;5.350;2023-10-09T16:59:39;12.00;;;4.85;;
63965;SDS011;50151;52.030;5.350;2023-10-09T17:02:07;14.30;;;4.72;;
63965;SDS011;50151;52.030;5.350;2023-10-09T17:04:39;13.35;;;4.28;;
63965;SDS011;50151;52.030;5.350;2023-10-09T17:07:06;16.05;;;4.50;;
63965;SDS011;50151;52.030;5.350;2023-10-09T17:09:40;10.52;;;3.83;;
63965;SDS011;50151;52.030;5.350;2023-10-09T17:12:13;9.27;;;3.60;;
63965;SDS011;50151;52.030;5.350;2023-10-09T17:14:43;12.90;;;3.97;;
63965;SDS011;50151;52.030;5.350;2023-10-09T17:17:10;13.80;;;4.22;;
63965;SDS011;50151;52.030;5.350;2023-10-09T17:19:37;13.80;;;4.10;;
63965;SDS011;50151;52.030;5.350;2023-10-09T17:22:04;13.70;;;4.43;;
63965;SDS011;50151;52.030;5.350;2023-10-09T17:24:37;13.83;;;4.17;;
63965;SDS011;50151;52.030;5.350;2023-10-09T17:27:11;12.68;;;3.90;;
63965;SDS011;50151;52.030;5.350;2023-10-09T17:29:43;12.80;;;4.10;;
63965;SDS011;50151;52.030;5.350;2023-10-09T17:32:12;10.68;;;4.03;;
63965;SDS011;50151;52.030;5.350;2023-10-09T17:34:39;10.60;;;3.58;;
63965;SDS011;50151;52.030;5.350;2023-10-09T17:37:06;12.30;;;4.10;;
63965;SDS011;50151;52.030;5.350;2023-10-09T17:39:33;9.60;;;4.30;;
63965;SDS011;50151;52.030;5.350;2023-10-09T17:42:00;10.27;;;4.57;;
63965;SDS011;50151;52.030;5.350;2023-10-09T17:44:31;11.18;;;4.60;;
63965;SDS011;50151;52.030;5.350;2023-10-09T17:46:57;18.63;;;4.90;;
63965;SDS011;50151;52.030;5.350;2023-10-09T17:49:26;10.18;;;4.35;;
63965;SDS011;50151;52.030;5.350;2023-10-09T17:51:53;12.40;;;4.50;;
63965;SDS011;50151;52.030;5.350;2023-10-09T17:54:19;11.60;;;4.78;;
63965;SDS011;50151;52.030;5.350;2023-10-09T17:56:49;12.93;;;4.75;;
63965;SDS011;50151;52.030;5.350;2023-10-09T17:59:16;13.10;;;4.97;;
63965;SDS011;50151;52.030;5.350;2023-10-09T18:01:44;12.75;;;5.40;;
63965;SDS011;50151;52.030;5.350;2023-10-09T18:04:11;14.80;;;5.75;;
63965;SDS011;50151;52.030;5.350;2023-10-09T18:06:40;21.55;;;5.72;;
63965;SDS011;50151;52.030;5.350;2023-10-09T18:09:08;10.98;;;4.97;;
63965;SDS011;50151;52.030;5.350;2023-10-09T18:11:44;14.35;;;5.63;;
63965;SDS011;50151;52.030;5.350;2023-10-09T18:14:11;17.90;;;5.88;;
63965;SDS011;50151;52.030;5.350;2023-10-09T18:16:43;19.35;;;5.57;;
63965;SDS011;50151;52.030;5.350;2023-10-09T18:19:11;9.55;;;5.47;;
63965;SDS011;50151;52.030;5.350;2023-10-09T18:21:41;13.18;;;5.53;;
63965;SDS011;50151;52.030;5.350;2023-10-09T18:24:10;15.00;;;5.65;;
63965;SDS011;50151;52.030;5.350;2023-10-09T18:26:40;15.63;;;5.30;;
63965;SDS011;50151;52.030;5.350;2023-10-09T18:29:07;18.70;;;6.03;;
63965;SDS011;50151;52.030;5.350;2023-10-09T18:31:41;13.07;;;6.22;;
63965;SDS011;50151;52.030;5.350;2023-10-09T18:34:08;14.23;;;6.18;;
63965;SDS011;50151;52.030;5.350;2023-10-09T18:36:35;19.65;;;7.32;;
63965;SDS011;50151;52.030;5.350;2023-10-09T18:39:03;21.88;;;6.82;;
63965;SDS011;50151;52.030;5.350;2023-10-09T18:41:30;16.20;;;6.10;;
63965;SDS011;50151;52.030;5.350;2023-10-09T18:43:57;15.80;;;6.30;;
63965;SDS011;50151;52.030;5.350;2023-10-09T18:46:27;22.02;;;6.28;;
63965;SDS011;50151;52.030;5.350;2023-10-09T18:48:53;17.48;;;7.13;;
63965;SDS011;50151;52.030;5.350;2023-10-09T18:51:26;12.50;;;5.63;;
63965;SDS011;50151;52.030;5.350;2023-10-09T18:53:55;19.02;;;5.60;;
63965;SDS011;50151;52.030;5.350;2023-10-09T18:56:26;17.85;;;6.57;;
63965;SDS011;50151;52.030;5.350;2023-10-09T18:58:54;25.65;;;6.70;;
63965;SDS011;50151;52.030;5.350;2023-10-09T19:01:23;17.27;;;6.65;;
63965;SDS011;50151;52.030;5.350;2023-10-09T19:03:49;17.75;;;6.72;;
63965;SDS011;50151;52.030;5.350;2023-10-09T19:06:17;18.40;;;6.65;;
63965;SDS011;50151;52.030;5.350;2023-10-09T19:08:44;17.30;;;6.97;;
63965;SDS011;50151;52.030;5.350;2023-10-09T19:11:14;14.52;;;6.40;;
63965;SDS011;50151;52.030;5.350;2023-10-09T19:13:42;15.77;;;6.32;;
63965;SDS011;50151;52.030;5.350;2023-10-09T19:16:09;15.05;;;6.07;;
63965;SDS011;50151;52.030;5.350;2023-10-09T19:18:38;23.75;;;6.85;;
63965;SDS011;50151;52.030;5.350;2023-10-09T19:21:05;16.38;;;6.07;;
63965;SDS011;50151;52.030;5.350;2023-10-09T19:23:37;18.02;;;6.18;;
63965;SDS011;50151;52.030;5.350;2023-10-09T19:26:07;13.48;;;6.10;;
63965;SDS011;50151;52.030;5.350;2023-10-09T19:28:35;15.07;;;6.07;;
63965;SDS011;50151;52.030;5.350;2023-10-09T19:33:32;20.27;;;6.72;;
63965;SDS011;50151;52.030;5.350;2023-10-09T19:36:04;18.83;;;5.95;;
63965;SDS011;50151;52.030;5.350;2023-10-09T19:38:38;18.23;;;6.82;;
63965;SDS011;50151;52.030;5.350;2023-10-09T19:41:05;21.70;;;6.70;;
63965;SDS011;50151;52.030;5.350;2023-10-09T19:43:32;14.48;;;6.00;;
63965;SDS011;50151;52.030;5.350;2023-10-09T19:46:02;18.90;;;6.63;;
63965;SDS011;50151;52.030;5.350;2023-10-09T19:48:29;20.35;;;6.47;;
63965;SDS011;50151;52.030;5.350;2023-10-09T19:50:59;19.17;;;6.15;;
63965;SDS011;50151;52.030;5.350;2023-10-09T19:53:27;18.13;;;6.57;;
63965;SDS011;50151;52.030;5.350;2023-10-09T19:55:53;14.02;;;6.13;;
63965;SDS011;50151;52.030;5.350;2023-10-09T19:58:23;22.83;;;7.13;;
63965;SDS011;50151;52.030;5.350;2023-10-09T20:00:52;21.33;;;6.20;;
63965;SDS011;50151;52.030;5.350;2023-10-09T20:03:19;18.17;;;6.22;;
63965;SDS011;50151;52.030;5.350;2023-10-09T20:05:50;16.60;;;6.05;;
63965;SDS011;50151;52.030;5.350;2023-10-09T20:08:17;19.80;;;6.57;;
63965;SDS011;50151;52.030;5.350;2023-10-09T20:10:43;21.42;;;6.60;;
63965;SDS011;50151;52.030;5.350;2023-10-09T20:13:10;18.58;;;6.97;;
63965;SDS011;50151;52.030;5.350;2023-10-09T20:15:38;16.25;;;6.05;;
63965;SDS011;50151;52.030;5.350;2023-10-09T20:18:10;19.95;;;6.85;;
63965;SDS011;50151;52.030;5.350;2023-10-09T20:20:38;20.40;;;7.05;;
63965;SDS011;50151;52.030;5.350;2023-10-09T20:23:07;17.90;;;7.50;;
63965;SDS011;50151;52.030;5.350;2023-10-09T20:25:34;20.25;;;7.30;;
63965;SDS011;50151;52.030;5.350;2023-10-09T20:28:02;19.13;;;7.65;;
63965;SDS011;50151;52.030;5.350;2023-10-09T20:30:29;17.00;;;7.30;;
63965;SDS011;50151;52.030;5.350;2023-10-09T20:33:00;18.17;;;7.07;;
63965;SDS011;50151;52.030;5.350;2023-10-09T20:35:26;18.27;;;7.13;;
63965;SDS011;50151;52.030;5.350;2023-10-09T20:37:53;20.15;;;7.20;;
63965;SDS011;50151;52.030;5.350;2023-10-09T20:40:28;20.52;;;7.10;;
63965;SDS011;50151;52.030;5.350;2023-10-09T20:42:57;19.77;;;6.80;;
63965;SDS011;50151;52.030;5.350;2023-10-09T20:45:24;23.70;;;7.00;;
63965;SDS011;50151;52.030;5.350;2023-10-09T20:47:51;19.45;;;6.88;;
63965;SDS011;50151;52.030;5.350;2023-10-09T20:52:52;16.92;;;6.60;;
63965;SDS011;50151;52.030;5.350;2023-10-09T20:55:20;18.23;;;6.63;;
63965;SDS011;50151;52.030;5.350;2023-10-09T20:57:52;20.20;;;7.43;;